Terminal Aerodrome Forecast
Issued by NWS

Home | Current Version | Previous Version | Text Only | Print | Product List | Glossary On
Versions: 1 2 3 4 5 6 7 8 9 10 11 12 13 14 15 16 17 18 19
000
FTUS43 KIND 042320
TAFBMG
TAF
KBMG 042320Z 0500/0524 31008KT P6SM BKN060
     FM050600 34010KT P6SM VCSH OVC060
     FM050800 32010KT P6SM VCSH BKN015
     FM050900 33010G16KT P6SM VCSH BKN008
     FM051100 34012G17KT P6SM BKN008
     FM051500 25012G18KT P6SM BKN015
     FM051700 36013G19KT P6SM BKN035
     FM052200 36013G19KT P6SM SCT060
      AMD LTD TO CLD WIND AND VIS 0501/0513=

USA.gov is the U.S. government's official web portal to all federal, state and local government web resources and services.